createdAt,value
2023-02-12T00:01:48.769Z,102690.09
2023-02-12T00:04:16.492Z,102685.97
2023-02-12T00:06:42.982Z,102681.53
2023-02-12T00:09:09.465Z,102689.00
2023-02-12T00:11:36.030Z,102681.41
2023-02-12T00:14:03.144Z,102676.41
2023-02-12T00:16:29.734Z,102687.94
2023-02-12T00:18:57.449Z,102673.13
2023-02-12T00:21:24.473Z,102683.25
2023-02-12T00:23:50.966Z,102692.16
2023-02-12T00:26:20.406Z,102696.00
2023-02-12T00:28:47.175Z,102685.00
2023-02-12T00:31:18.162Z,102684.97
2023-02-12T00:33:44.823Z,102686.38
2023-02-12T00:36:17.344Z,102690.34
2023-02-12T00:38:44.727Z,102698.41
2023-02-12T00:41:11.877Z,102692.41
2023-02-12T00:43:38.570Z,102692.38
2023-02-12T00:46:05.588Z,102692.28
2023-02-12T00:48:32.097Z,102698.72
2023-02-12T00:50:58.786Z,102705.41
2023-02-12T00:53:25.457Z,102705.22
2023-02-12T00:55:52.061Z,102707.78
2023-02-12T00:58:19.139Z,102713.34
2023-02-12T01:00:45.882Z,102708.47
2023-02-12T01:03:12.316Z,102706.69
2023-02-12T01:05:38.726Z,102713.34
2023-02-12T01:08:05.654Z,102714.78
2023-02-12T01:10:32.559Z,102721.94
2023-02-12T01:12:58.987Z,102710.28
2023-02-12T01:15:25.418Z,102714.50
2023-02-12T01:17:53.166Z,102712.03
2023-02-12T01:20:22.007Z,102729.84
2023-02-12T01:22:48.535Z,102733.69
2023-02-12T01:25:14.998Z,102732.81
2023-02-12T01:27:41.478Z,102727.06
2023-02-12T01:30:10.990Z,102706.59
2023-02-12T01:32:38.239Z,102721.97
2023-02-12T01:35:05.532Z,102715.66
2023-02-12T01:37:35.511Z,102715.53
2023-02-12T01:40:02.100Z,102721.84
2023-02-12T01:42:28.616Z,102720.13
2023-02-12T01:45:30.381Z,102727.41
2023-02-12T01:48:00.617Z,102717.16
2023-02-12T01:50:27.195Z,102719.94
2023-02-12T01:52:57.177Z,102719.56
2023-02-12T01:55:24.686Z,102712.88
2023-02-12T01:57:51.472Z,102712.25
2023-02-12T02:00:20.352Z,102718.59
2023-02-12T02:02:51.368Z,102709.91
2023-02-12T02:05:26.774Z,102707.56
2023-02-12T02:07:54.047Z,102714.75
2023-02-12T02:10:20.600Z,102717.69
2023-02-12T02:13:13.209Z,102709.47
2023-02-12T02:15:42.692Z,102711.47
2023-02-12T02:18:20.686Z,102708.41
2023-02-12T02:20:56.382Z,102723.19
2023-02-12T02:24:00.659Z,102710.00
2023-02-12T02:27:04.084Z,102718.34
2023-02-12T02:29:51.652Z,102700.56
2023-02-12T02:32:31.033Z,102710.19
2023-02-12T02:35:05.299Z,102717.19
2023-02-12T02:37:39.407Z,102710.28
2023-02-12T02:40:13.841Z,102709.63
2023-02-12T02:42:59.594Z,102713.59
2023-02-12T02:45:37.669Z,102716.69
2023-02-12T02:48:20.015Z,102703.75
2023-02-12T02:50:52.514Z,102721.91
2023-02-12T02:53:26.579Z,102718.59
2023-02-12T02:55:57.308Z,102725.97
2023-02-12T02:58:29.279Z,102726.25
2023-02-12T03:01:02.017Z,102726.13
2023-02-12T03:03:44.640Z,102726.47
2023-02-12T03:06:19.251Z,102719.31
2023-02-12T03:08:58.755Z,102721.81
2023-02-12T03:11:31.432Z,102741.06
2023-02-12T03:14:05.691Z,102740.31
2023-02-12T03:16:37.525Z,102738.47
2023-02-12T03:19:15.140Z,102744.00
2023-02-12T03:21:48.427Z,102751.72
2023-02-12T03:24:27.825Z,102753.31
2023-02-12T03:27:02.661Z,102744.78
2023-02-12T03:29:29.214Z,102749.59
2023-02-12T03:32:04.277Z,102754.59
2023-02-12T03:35:08.673Z,102749.44
2023-02-12T03:37:40.507Z,102747.63
2023-02-12T03:40:47.157Z,102758.56
2023-02-12T03:43:29.247Z,102747.84
2023-02-12T03:46:15.157Z,102754.25
2023-02-12T03:49:01.282Z,102760.84
2023-02-12T03:51:40.981Z,102757.34
2023-02-12T03:54:11.802Z,102764.34
2023-02-12T03:56:41.599Z,102758.63
2023-02-12T03:59:08.329Z,102758.06
2023-02-12T04:01:35.781Z,102767.06
2023-02-12T04:04:05.238Z,102769.16
2023-02-12T04:06:32.160Z,102766.47
2023-02-12T04:09:03.037Z,102763.16
2023-02-12T04:11:54.229Z,102769.56
2023-02-12T04:14:29.209Z,102776.41
2023-02-12T04:17:14.809Z,102776.81
2023-02-12T04:20:10.397Z,102779.31
2023-02-12T04:22:45.882Z,102783.59
2023-02-12T04:25:30.104Z,102778.75
2023-02-12T04:28:05.562Z,102781.63
2023-02-12T04:30:45.531Z,102795.88
2023-02-12T04:33:18.191Z,102796.78
2023-02-12T04:36:16.601Z,102797.41
2023-02-12T04:39:03.131Z,102794.56
2023-02-12T04:41:30.937Z,102793.66
2023-02-12T04:43:57.495Z,102793.41
2023-02-12T04:46:23.950Z,102803.59
2023-02-12T04:48:57.532Z,102795.88
2023-02-12T04:51:24.019Z,102801.34
2023-02-12T04:53:50.821Z,102808.19
2023-02-12T04:56:17.682Z,102811.78
2023-02-12T04:58:44.126Z,102813.91
2023-02-12T05:01:10.923Z,102805.56
2023-02-12T05:03:37.880Z,102811.03
2023-02-12T05:06:08.931Z,102809.97
2023-02-12T05:08:35.711Z,102810.84
2023-02-12T05:11:09.721Z,102804.06
2023-02-12T05:13:36.447Z,102805.00
2023-02-12T05:16:07.809Z,102806.34
2023-02-12T05:18:35.249Z,102812.16
2023-02-12T05:21:03.780Z,102812.72
2023-02-12T05:23:32.091Z,102810.38
2023-02-12T05:26:00.302Z,102815.94
2023-02-12T05:28:27.959Z,102818.88
2023-02-12T05:30:54.536Z,102815.28
2023-02-12T05:33:21.428Z,102813.94
2023-02-12T05:35:47.847Z,102811.31
2023-02-12T05:38:14.245Z,102823.75
2023-02-12T05:40:41.008Z,102830.75
2023-02-12T05:43:07.478Z,102821.94
2023-02-12T05:45:33.992Z,102828.22
2023-02-12T05:48:00.553Z,102835.72
2023-02-12T05:50:26.962Z,102840.56
2023-02-12T05:52:53.389Z,102843.94
2023-02-12T05:55:19.808Z,102836.47
2023-02-12T05:57:46.221Z,102848.19
2023-02-12T06:00:13.351Z,102837.25
2023-02-12T06:02:39.812Z,102847.47
2023-02-12T06:05:06.544Z,102840.06
2023-02-12T06:07:32.952Z,102844.44
2023-02-12T06:09:59.383Z,102842.34
2023-02-12T06:12:25.802Z,102841.06
2023-02-12T06:14:52.310Z,102841.56
2023-02-12T06:17:18.728Z,102849.75
2023-02-12T06:19:45.165Z,102847.56
2023-02-12T06:22:11.611Z,102852.16
2023-02-12T06:24:38.061Z,102850.75
2023-02-12T06:27:04.545Z,102849.22
2023-02-12T06:29:30.952Z,102853.34
2023-02-12T06:31:57.514Z,102851.66
2023-02-12T06:34:24.024Z,102847.16
2023-02-12T06:36:50.580Z,102852.75
2023-02-12T06:39:17.938Z,102861.91
2023-02-12T06:41:44.712Z,102854.91
2023-02-12T06:44:12.799Z,102854.13
2023-02-12T06:46:39.364Z,102862.50
2023-02-12T06:49:05.989Z,102853.16
2023-02-12T06:51:32.521Z,102872.66
2023-02-12T06:53:58.961Z,102868.63
2023-02-12T06:56:26.800Z,102871.50
2023-02-12T06:58:58.384Z,102874.22
2023-02-12T07:01:27.166Z,102877.00
2023-02-12T07:03:59.899Z,102882.44
2023-02-12T07:06:27.394Z,102878.44
2023-02-12T07:08:55.009Z,102878.41
2023-02-12T07:11:30.529Z,102875.41
2023-02-12T07:13:57.100Z,102877.84
2023-02-12T07:16:24.213Z,102880.31
2023-02-12T07:18:50.885Z,102892.88
2023-02-12T07:21:18.284Z,102892.88
2023-02-12T07:23:51.378Z,102891.53
2023-02-12T07:26:19.318Z,102883.16
2023-02-12T07:28:45.806Z,102887.81
2023-02-12T07:31:15.620Z,102892.94
2023-02-12T07:33:42.898Z,102890.63
2023-02-12T07:36:15.936Z,102896.09
2023-02-12T07:38:42.931Z,102898.53
2023-02-12T07:41:34.068Z,102895.69
2023-02-12T07:44:10.139Z,102902.91
2023-02-12T07:46:42.903Z,102905.91
2023-02-12T07:49:13.898Z,102913.28
2023-02-12T07:51:41.093Z,102918.38
2023-02-12T07:54:07.561Z,102914.16
2023-02-12T07:56:37.494Z,102915.19
2023-02-12T07:59:07.146Z,102911.66
2023-02-12T08:01:36.335Z,102923.88
2023-02-12T08:04:09.043Z,102913.53
2023-02-12T08:06:41.160Z,102927.44
2023-02-12T08:09:10.094Z,102925.88
2023-02-12T08:11:38.501Z,102927.59
2023-02-12T08:14:05.693Z,102923.06
2023-02-12T08:16:37.488Z,102919.97
2023-02-12T08:19:16.172Z,102923.72
2023-02-12T08:21:44.442Z,102927.09
2023-02-12T08:24:11.852Z,102923.78
2023-02-12T08:26:39.497Z,102924.38
2023-02-12T08:29:12.026Z,102926.06
2023-02-12T08:31:41.618Z,102934.28
2023-02-12T08:34:21.846Z,102932.34
2023-02-12T08:36:50.125Z,102938.88
2023-02-12T08:39:18.218Z,102939.75
2023-02-12T08:41:45.442Z,102944.16
2023-02-12T08:44:12.873Z,102946.66
2023-02-12T08:46:42.818Z,102941.84
2023-02-12T08:49:13.986Z,102957.03
2023-02-12T08:51:43.171Z,102948.13
2023-02-12T08:54:14.489Z,102950.16
2023-02-12T08:56:42.244Z,102947.16
2023-02-12T08:59:08.804Z,102955.34
2023-02-12T09:01:43.381Z,102950.41
2023-02-12T09:04:21.997Z,102952.81
2023-02-12T09:06:50.096Z,102965.84
2023-02-12T09:09:16.882Z,102969.88
2023-02-12T09:11:44.636Z,102975.59
2023-02-12T09:14:14.128Z,102983.31
2023-02-12T09:16:41.319Z,102976.06
2023-02-12T09:19:08.930Z,102975.00
2023-02-12T09:21:35.393Z,102978.03
2023-02-12T09:24:03.418Z,102982.91
2023-02-12T09:26:29.948Z,102979.00
2023-02-12T09:28:56.551Z,102977.81
2023-02-12T09:31:28.551Z,102982.19
2023-02-12T09:33:59.217Z,102983.88
2023-02-12T09:36:26.079Z,102982.66
2023-02-12T09:38:54.137Z,102990.88
2023-02-12T09:41:39.115Z,102991.34
2023-02-12T09:44:22.387Z,102992.34
2023-02-12T09:46:59.258Z,102997.09
2023-02-12T09:50:05.912Z,102988.66
2023-02-12T09:52:34.592Z,102996.41
2023-02-12T09:55:01.573Z,102993.09
2023-02-12T09:57:35.090Z,102995.22
2023-02-12T10:00:11.913Z,102995.88
2023-02-12T10:02:40.237Z,102997.41
2023-02-12T10:05:18.884Z,102998.75
2023-02-12T10:08:03.922Z,102996.06
2023-02-12T10:10:42.724Z,102997.63
2023-02-12T10:13:24.718Z,102996.09
2023-02-12T10:15:55.223Z,102995.31
2023-02-12T10:18:45.348Z,102997.00
2023-02-12T10:21:39.493Z,103005.69
2023-02-12T10:24:23.372Z,103002.16
2023-02-12T10:26:54.255Z,103008.00
2023-02-12T10:29:24.826Z,103007.47
2023-02-12T10:34:33.903Z,103011.63
2023-02-12T10:37:11.208Z,103015.25
2023-02-12T10:39:44.525Z,103010.47
2023-02-12T10:42:25.983Z,103011.97
2023-02-12T10:44:52.548Z,103012.50
2023-02-12T10:47:22.195Z,103003.44
2023-02-12T10:50:02.015Z,103010.28
2023-02-12T10:52:43.730Z,103010.84
2023-02-12T10:55:33.903Z,103015.00
2023-02-12T10:58:02.901Z,103013.44
2023-02-12T11:00:31.734Z,103008.78
2023-02-12T11:03:03.885Z,103013.59
2023-02-12T11:05:34.250Z,103017.09
2023-02-12T11:08:01.446Z,103013.09
2023-02-12T11:10:28.145Z,103009.13
2023-02-12T11:12:55.391Z,103008.47
2023-02-12T11:15:31.216Z,103007.09
2023-02-12T11:18:08.821Z,103002.16
2023-02-12T11:20:41.271Z,103005.34
2023-02-12T11:23:22.947Z,103003.63
2023-02-12T11:26:04.319Z,103001.84
2023-02-12T11:28:32.828Z,103002.00
2023-02-12T11:31:01.066Z,102994.69
2023-02-12T11:33:32.061Z,102994.06
2023-02-12T11:36:07.251Z,102990.44
2023-02-12T11:38:37.772Z,102992.31
2023-02-12T11:41:17.390Z,102982.72
2023-02-12T11:43:45.111Z,102981.16
2023-02-12T11:46:22.567Z,102981.19
2023-02-12T11:48:50.909Z,102979.16
2023-02-12T11:51:29.739Z,102975.25
2023-02-12T11:54:00.594Z,102974.19
2023-02-12T11:56:42.754Z,102973.59
2023-02-12T11:59:24.277Z,102970.34
2023-02-12T12:01:55.165Z,102971.59
2023-02-12T12:04:24.126Z,102967.69
2023-02-12T12:07:11.606Z,102961.44
2023-02-12T12:09:49.620Z,102955.72
2023-02-12T12:12:23.322Z,102963.72
2023-02-12T12:15:21.542Z,102967.69
2023-02-12T12:18:22.498Z,102963.63
2023-02-12T12:21:03.539Z,102965.94
2023-02-12T12:23:41.637Z,102952.31
2023-02-12T12:26:18.814Z,102969.78
2023-02-12T12:28:59.009Z,102968.28
2023-02-12T12:31:31.693Z,102962.19
2023-02-12T12:34:04.100Z,102966.03
2023-02-12T12:36:52.229Z,102957.94
2023-02-12T12:39:56.044Z,102948.84
2023-02-12T12:42:53.828Z,102953.31
2023-02-12T12:45:32.410Z,102948.19
2023-02-12T12:48:20.381Z,102948.59
2023-02-12T12:51:02.348Z,102948.75
2023-02-12T12:53:43.188Z,102934.59
2023-02-12T12:56:21.890Z,102926.56
2023-02-12T12:59:25.984Z,102929.69
2023-02-12T13:02:00.225Z,102937.25
2023-02-12T13:04:26.687Z,102939.38
2023-02-12T13:07:32.706Z,102935.50
2023-02-12T13:10:26.538Z,102921.94
2023-02-12T13:13:11.752Z,102922.91
2023-02-12T13:15:52.797Z,102917.50
2023-02-12T13:18:19.205Z,102919.06
2023-02-12T13:20:54.612Z,102918.25
2023-02-12T13:23:46.007Z,102911.28
2023-02-12T13:26:35.732Z,102912.56
2023-02-12T13:29:12.030Z,102911.13
2023-02-12T13:31:47.742Z,102903.91
2023-02-12T13:34:17.566Z,102903.44
2023-02-12T13:36:45.559Z,102913.50
2023-02-12T13:39:22.678Z,102907.81
2023-02-12T13:42:02.218Z,102902.91
2023-02-12T13:44:36.306Z,102899.13
2023-02-12T13:47:09.582Z,102903.59
2023-02-12T13:49:52.319Z,102907.31
2023-02-12T13:52:47.911Z,102904.16
2023-02-12T13:55:46.473Z,102901.91
2023-02-12T13:58:31.796Z,102904.34
2023-02-12T14:01:12.867Z,102900.63
2023-02-12T14:03:40.099Z,102905.56
2023-02-12T14:06:12.330Z,102890.44
2023-02-12T14:08:42.244Z,102892.31
2023-02-12T14:11:19.184Z,102888.97
2023-02-12T14:14:00.453Z,102898.25
2023-02-12T14:16:29.989Z,102892.91
2023-02-12T14:19:34.195Z,102890.41
2023-02-12T14:22:01.648Z,102887.94
2023-02-12T14:24:37.271Z,102882.34
2023-02-12T14:27:21.449Z,102882.41
2023-02-12T14:30:04.535Z,102888.66
2023-02-12T14:32:58.093Z,102888.22
2023-02-12T14:35:38.098Z,102893.03
2023-02-12T14:38:27.847Z,102896.59
2023-02-12T14:41:33.994Z,102898.66
2023-02-12T14:44:20.428Z,102897.84
2023-02-12T14:46:49.457Z,102897.56
2023-02-12T14:49:24.964Z,102908.66
2023-02-12T14:52:05.116Z,102903.88
2023-02-12T14:54:36.942Z,102904.53
2023-02-12T14:57:09.755Z,102906.13
2023-02-12T14:59:41.498Z,102902.69
2023-02-12T15:02:15.262Z,102907.09
2023-02-12T15:04:45.275Z,102906.25
2023-02-12T15:07:21.677Z,102898.22
2023-02-12T15:09:55.898Z,102906.25
2023-02-12T15:12:26.727Z,102904.38
2023-02-12T15:14:59.513Z,102913.88
2023-02-12T15:17:30.871Z,102911.56
2023-02-12T15:20:13.236Z,102916.78
2023-02-12T15:22:40.849Z,102911.94
2023-02-12T15:25:26.866Z,102907.47
2023-02-12T15:28:00.639Z,102901.94
2023-02-12T15:30:30.951Z,102904.75
2023-02-12T15:33:00.331Z,102901.44
2023-02-12T15:35:29.326Z,102907.16
2023-02-12T15:37:57.274Z,102906.47
2023-02-12T15:40:24.109Z,102896.38
2023-02-12T15:43:04.758Z,102893.00
2023-02-12T15:45:33.921Z,102895.66
2023-02-12T15:48:05.201Z,102893.47
2023-02-12T15:50:33.130Z,102894.75
2023-02-12T15:53:00.080Z,102891.72
2023-02-12T15:55:30.458Z,102899.13
2023-02-12T15:58:00.323Z,102892.81
2023-02-12T16:00:39.448Z,102897.16
2023-02-12T16:03:05.977Z,102897.03
2023-02-12T16:05:35.068Z,102900.69
2023-02-12T16:08:02.023Z,102904.75
2023-02-12T16:10:28.904Z,102902.94
2023-02-12T16:12:57.634Z,102903.69
2023-02-12T16:15:34.432Z,102904.09
2023-02-12T16:18:04.079Z,102898.53
2023-02-12T16:20:31.514Z,102903.44
2023-02-12T16:22:59.253Z,102904.06
2023-02-12T16:25:28.108Z,102916.94
2023-02-12T16:28:18.699Z,102912.66
2023-02-12T16:30:48.280Z,102917.38
2023-02-12T16:33:53.115Z,102911.94
2023-02-12T16:36:19.519Z,102926.19
2023-02-12T16:39:00.456Z,102929.53
2023-02-12T16:41:32.827Z,102932.47
2023-02-12T16:44:02.337Z,102929.38
2023-02-12T16:46:31.386Z,102939.44
2023-02-12T16:49:00.731Z,102941.19
2023-02-12T16:51:27.417Z,102925.84
2023-02-12T16:53:57.475Z,102937.47
2023-02-12T16:56:27.555Z,102936.47
2023-02-12T16:58:58.054Z,102936.97
2023-02-12T17:01:33.438Z,102941.63
2023-02-12T17:04:02.097Z,102943.50
2023-02-12T17:06:30.668Z,102939.50
2023-02-12T17:08:57.749Z,102948.34
2023-02-12T17:11:26.803Z,102945.72
2023-02-12T17:13:55.469Z,102947.31
2023-02-12T17:16:30.665Z,102953.28
2023-02-12T17:18:59.129Z,102947.41
2023-02-12T17:21:38.073Z,102951.31
2023-02-12T17:24:15.028Z,102953.53
2023-02-12T17:26:41.495Z,102949.38
2023-02-12T17:29:07.887Z,102951.41
2023-02-12T17:31:36.550Z,102957.00
2023-02-12T17:34:04.500Z,102961.81
2023-02-12T17:36:30.926Z,102964.06
2023-02-12T17:38:57.352Z,102962.50
2023-02-12T17:41:24.444Z,102959.06
2023-02-12T17:43:50.930Z,102964.09
2023-02-12T17:46:20.548Z,102971.13
2023-02-12T17:48:47.215Z,102970.81
2023-02-12T17:51:14.471Z,102971.75
2023-02-12T17:53:41.637Z,102967.56
2023-02-12T17:56:12.647Z,102974.09
2023-02-12T17:58:40.363Z,102974.91
2023-02-12T18:01:09.041Z,102974.53
2023-02-12T18:03:35.773Z,102977.84
2023-02-12T18:06:02.432Z,102977.22
2023-02-12T18:08:29.141Z,102974.00
2023-02-12T18:10:56.558Z,102977.22
2023-02-12T18:13:23.660Z,102981.63
2023-02-12T18:15:52.206Z,102977.69
2023-02-12T18:18:18.819Z,102974.00
2023-02-12T18:20:45.317Z,102975.97
2023-02-12T18:23:11.976Z,102987.69
2023-02-12T18:25:43.188Z,102982.47
2023-02-12T18:28:11.162Z,102987.03
2023-02-12T18:30:38.964Z,102984.53
2023-02-12T18:33:06.159Z,102984.00
2023-02-12T18:35:33.636Z,102979.66
2023-02-12T18:38:00.089Z,102976.47
2023-02-12T18:40:26.561Z,102979.44
2023-02-12T18:42:53.000Z,102985.56
2023-02-12T18:45:19.540Z,102979.59
2023-02-12T18:47:46.047Z,102983.91
2023-02-12T18:50:12.503Z,102994.34
2023-02-12T18:52:38.902Z,102990.91
2023-02-12T18:55:06.823Z,102994.59
2023-02-12T18:57:33.320Z,102988.13
2023-02-12T18:59:59.848Z,102987.72
2023-02-12T19:02:26.355Z,102987.63
2023-02-12T19:04:52.883Z,102985.59
2023-02-12T19:07:19.311Z,102976.34
2023-02-12T19:09:45.840Z,102984.97
2023-02-12T19:12:12.285Z,102980.91
2023-02-12T19:14:38.770Z,102983.25
2023-02-12T19:17:05.219Z,102982.94
2023-02-12T19:19:31.645Z,102990.84
2023-02-12T19:21:58.087Z,102991.59
2023-02-12T19:24:24.578Z,102992.03
2023-02-12T19:26:52.796Z,102985.47
2023-02-12T19:29:19.328Z,102988.41
2023-02-12T19:31:46.621Z,102989.38
2023-02-12T19:34:19.990Z,102982.72
2023-02-12T19:36:47.450Z,102981.03
2023-02-12T19:39:16.603Z,102990.22
2023-02-12T19:41:43.483Z,102985.44
2023-02-12T19:44:13.055Z,102979.16
2023-02-12T19:46:40.538Z,102982.78
2023-02-12T19:49:08.206Z,102984.50
2023-02-12T19:51:34.732Z,102984.28
2023-02-12T19:54:04.095Z,102983.81
2023-02-12T19:56:31.220Z,102981.03
2023-02-12T19:58:58.335Z,102975.50
2023-02-12T20:01:27.194Z,102976.66
2023-02-12T20:03:54.547Z,102984.91
2023-02-12T20:06:28.119Z,102977.38
2023-02-12T20:08:54.947Z,102980.28
2023-02-12T20:11:28.685Z,102980.06
2023-02-12T20:13:55.663Z,102994.59
2023-02-12T20:16:25.977Z,102989.25
2023-02-12T20:18:54.620Z,103000.66
2023-02-12T20:21:24.686Z,103001.34
2023-02-12T20:23:51.688Z,102997.25
2023-02-12T20:26:19.814Z,103003.31
2023-02-12T20:28:47.378Z,102995.91
2023-02-12T20:31:22.379Z,103003.66
2023-02-12T20:33:54.024Z,102997.16
2023-02-12T20:36:20.475Z,103000.56
2023-02-12T20:38:51.701Z,102997.84
2023-02-12T20:41:18.195Z,103001.56
2023-02-12T20:43:44.647Z,103001.69
2023-02-12T20:46:14.939Z,103006.88
2023-02-12T20:48:42.107Z,102993.38
2023-02-12T20:51:12.483Z,103001.69
2023-02-12T20:53:39.461Z,102998.03
2023-02-12T20:56:14.742Z,102999.81
2023-02-12T20:58:44.683Z,102999.44
2023-02-12T21:01:14.005Z,103000.91
2023-02-12T21:03:41.366Z,102994.50
2023-02-12T21:06:07.895Z,102997.06
2023-02-12T21:08:38.682Z,102992.97
2023-02-12T21:11:12.930Z,102987.84
2023-02-12T21:13:39.365Z,103000.06
2023-02-12T21:16:12.446Z,102988.97
2023-02-12T21:18:39.314Z,102993.81
2023-02-12T21:21:10.047Z,102998.41
2023-02-12T21:23:36.907Z,102988.88
2023-02-12T21:26:09.109Z,102992.91
2023-02-12T21:28:36.447Z,102990.22
2023-02-12T21:31:10.422Z,102989.19
2023-02-12T21:33:38.656Z,102986.03
2023-02-12T21:36:07.862Z,102989.44
2023-02-12T21:38:37.897Z,102983.25
2023-02-12T21:41:14.158Z,102988.47
2023-02-12T21:43:42.403Z,102985.81
2023-02-12T21:46:09.884Z,102983.69
2023-02-12T21:48:38.930Z,102988.47
2023-02-12T21:51:06.094Z,102980.63
2023-02-12T21:53:32.889Z,102977.66
2023-02-12T21:56:03.958Z,102980.97
2023-02-12T21:58:30.411Z,102990.38
2023-02-12T22:00:57.131Z,102989.06
2023-02-12T22:03:23.762Z,102992.09
2023-02-12T22:05:50.707Z,102990.91
2023-02-12T22:08:17.180Z,102986.59
2023-02-12T22:10:43.657Z,102980.16
2023-02-12T22:13:10.034Z,102970.34
2023-02-12T22:15:36.587Z,102968.97
2023-02-12T22:18:03.070Z,102973.75
2023-02-12T22:20:29.500Z,102975.63
2023-02-12T22:22:55.993Z,102975.25
2023-02-12T22:25:22.557Z,102985.47
2023-02-12T22:27:49.034Z,102985.03
2023-02-12T22:30:16.591Z,102983.34
2023-02-12T22:32:43.069Z,102984.94
2023-02-12T22:35:09.610Z,102976.63
2023-02-12T22:37:39.148Z,102982.81
2023-02-12T22:40:08.304Z,102980.97
2023-02-12T22:42:34.726Z,102984.94
2023-02-12T22:45:01.202Z,102986.44
2023-02-12T22:47:31.883Z,102985.94
2023-02-12T22:49:59.645Z,102986.59
2023-02-12T22:52:27.001Z,102975.53
2023-02-12T22:54:54.060Z,102982.94
2023-02-12T22:57:20.755Z,102981.88
2023-02-12T22:59:49.121Z,102983.69
2023-02-12T23:02:15.771Z,102979.00
2023-02-12T23:04:42.317Z,102981.81
2023-02-12T23:07:08.702Z,102983.88
2023-02-12T23:09:35.099Z,102981.91
2023-02-12T23:12:01.631Z,102984.34
2023-02-12T23:14:28.130Z,102982.50
2023-02-12T23:16:54.594Z,102984.13
2023-02-12T23:19:21.206Z,102976.72
2023-02-12T23:21:47.686Z,102974.56
2023-02-12T23:24:14.842Z,102969.19
2023-02-12T23:26:41.454Z,102969.44
2023-02-12T23:29:08.195Z,102967.94
2023-02-12T23:31:34.764Z,102968.50
2023-02-12T23:34:01.318Z,102966.53
2023-02-12T23:36:28.254Z,102965.13
2023-02-12T23:38:54.911Z,102964.03
2023-02-12T23:41:21.401Z,102970.03
2023-02-12T23:43:47.841Z,102961.41
2023-02-12T23:46:14.327Z,102954.56
2023-02-12T23:48:41.194Z,102960.59
2023-02-12T23:51:07.762Z,102963.72
2023-02-12T23:53:34.266Z,102959.63
2023-02-12T23:56:00.749Z,102961.69
2023-02-12T23:58:27.243Z,102958.91
